Página principal
METAR-TAF:

METAR-TAF

Aeroportos :

Irkutsk, Rússia

latitude: 52-16N, longitude: 104-19E, altura: 513 m

Observação actual do tempo

O boletim foi feito há 44 minutos, às 07:30 UTC
Vento 8 kt de nor-noroeste, variando entre oes-noroeste e norte
Temperatura 15°C
Humidade 77%
Pressão 1012 hPa
Visibilidade 10 km ou mais
Nuvens fragmentadasa uma altura de 4400 ft, Cumulonimbus.

METAR: UIII 210730Z 34004MPS 300V360 9999 BKN044CB 15/11 Q1012 R30/60D NOSIG RMK QFE714/0952

Hora: 16:14 (08:14 UTC)

Previsão

O boletim foi feito há 3 horas e 14 minutos, às 05:00 UTC
Previsão válida de 21 às 06 UTC a 22 às 06 UTC
Vento 14 kt de oes-noroeste com rajadas de 23 kt
Visibilidade 10 km ou mais
Nuvens fragmentadasa uma altura de 1000 ft, Cumulonimbus.
Temporariamente
de 21 às 06 UTC a 22 às 06 UTC
Visibilidade: 2500 m
Nuvens fragmentadasa uma altura de 700 ft, Cumulonimbus.
aguaceiros fracos de chuva

TAF: UIII 210500Z 2106/2206 30007G12MPS 9999 BKN010CB TEMPO 2106/2206 2500 -SHRA BKN007CB

Observações e previsões do tempo de mais de 4000 aeroportos (mensagens METAR e TAF).

As estações disponíveis são os pontos amarelos e vermelhos sobre o mapa.

Mova o rato sobre o mapa para ver o nome da estação.

Depois clique no ponto para visualizar as observações e previsões meteorológicas.

Para alterar o mapa : clique nos botões verdes com uma cruz preta para aumentar o zoom; no botão verde com uma pitada de zoom; ou nas setas verdes para mapas adjacentes.


METAR-TAF: